Time;durP1;ratioP1;P1;durP2;ratioP2;P2;SDS_P1;SDS_P2;PMS_P1;PMS_P2;Temp;Humidity;BMP_temperature;BMP_pressure;BME280_temperature;BME280_humidity;BME280_pressure;Samples;Min_cycle;Max_cycle;Signal;HPM_P1;HPM_P2
2023/05/28 00:01:25;;;;;;;13.82;6.45;;;15.30;92.40;;;;;;4973119;28;20119;-72
2023/05/28 00:03:54;;;;;;;12.73;7.55;;;15.30;92.50;;;;;;4978916;28;20026;-75
2023/05/28 00:06:26;;;;;;;11.13;7.00;;;15.20;92.60;;;;;;4980016;28;20552;-73
2023/05/28 00:08:54;;;;;;;14.27;7.43;;;15.20;92.70;;;;;;4977954;28;20027;-74
2023/05/28 00:11:21;;;;;;;11.90;7.25;;;15.20;92.90;;;;;;4996926;28;20362;-72
2023/05/28 00:13:49;;;;;;;12.60;6.65;;;15.20;93.10;;;;;;4996505;28;20391;-72
2023/05/28 00:16:15;;;;;;;11.68;6.90;;;15.20;93.20;;;;;;4996478;28;20138;-73
2023/05/28 00:18:41;;;;;;;12.18;6.70;;;15.10;93.30;;;;;;4994897;28;20504;-73
2023/05/28 00:21:06;;;;;;;12.52;6.53;;;15.10;93.30;;;;;;4995905;28;20050;-73
2023/05/28 00:23:32;;;;;;;14.50;6.55;;;15.10;93.30;;;;;;4995238;28;20022;-73
2023/05/28 00:25:58;;;;;;;9.48;5.72;;;15.10;93.40;;;;;;4994881;28;20193;-73
2023/05/28 00:28:24;;;;;;;11.82;6.22;;;15.00;93.50;;;;;;4987835;28;20023;-74
2023/05/28 00:30:49;;;;;;;12.93;5.63;;;14.90;93.60;;;;;;4970586;28;20561;-73
2023/05/28 00:33:18;;;;;;;12.40;6.07;;;14.90;93.70;;;;;;4967253;28;20050;-73
2023/05/28 00:35:46;;;;;;;11.70;5.57;;;14.90;93.80;;;;;;4972666;28;20486;-73
2023/05/28 00:38:24;;;;;;;13.32;5.90;;;14.80;93.90;;;;;;4969578;28;20105;-73
2023/05/28 00:40:56;;;;;;;11.68;5.75;;;14.80;94.00;;;;;;4968622;28;20078;-72
2023/05/28 00:43:22;;;;;;;12.25;5.85;;;14.70;94.10;;;;;;4968450;28;20057;-72
2023/05/28 00:45:59;;;;;;;12.43;6.35;;;14.70;94.30;;;;;;4972644;28;20065;-72
2023/05/28 00:48:29;;;;;;;13.40;5.82;;;14.60;94.40;;;;;;4967016;28;20065;-72
2023/05/28 00:50:58;;;;;;;10.90;5.95;;;14.60;94.50;;;;;;4970173;28;20047;-72
2023/05/28 00:53:25;;;;;;;11.32;5.78;;;14.60;94.70;;;;;;4969088;28;20031;-72
2023/05/28 00:56:03;;;;;;;12.38;5.65;;;14.60;94.80;;;;;;4973011;28;20880;-72
2023/05/28 00:58:34;;;;;;;14.57;6.70;;;14.50;94.90;;;;;;4969512;28;20035;-72
2023/05/28 01:01:02;;;;;;;13.95;6.40;;;14.50;95.10;;;;;;4975236;28;20031;-72
2023/05/28 01:03:27;;;;;;;13.77;6.85;;;14.50;95.30;;;;;;4998451;28;20460;-73
2023/05/28 01:06:01;;;;;;;13.80;6.65;;;14.50;95.40;;;;;;4971193;28;20075;-72
2023/05/28 01:08:37;;;;;;;11.55;6.70;;;14.40;95.40;;;;;;4996727;28;20054;-72
2023/05/28 01:11:03;;;;;;;12.45;6.38;;;14.40;95.70;;;;;;4968852;28;20470;-71
2023/05/28 01:13:30;;;;;;;13.77;6.68;;;14.30;95.90;;;;;;4968622;28;20131;-72
2023/05/28 01:16:02;;;;;;;12.68;7.55;;;14.30;96.00;;;;;;4966051;28;20395;-70
2023/05/28 01:18:28;;;;;;;10.20;6.38;;;14.30;96.20;;;;;;4967835;28;20027;-71
2023/05/28 01:21:03;;;;;;;14.65;6.72;;;14.20;96.60;;;;;;4973361;28;20050;-75
2023/05/28 01:23:29;;;;;;;14.73;6.07;;;14.10;96.60;;;;;;5001218;28;20035;-71
2023/05/28 01:26:02;;;;;;;11.45;6.65;;;14.10;96.80;;;;;;4966551;28;20147;-72
2023/05/28 01:28:37;;;;;;;12.07;6.40;;;14.10;96.90;;;;;;4963562;28;20023;-72
2023/05/28 01:31:12;;;;;;;15.18;7.50;;;14.00;97.10;;;;;;4967966;28;20098;-71
2023/05/28 01:33:41;;;;;;;15.05;6.55;;;13.90;97.20;;;;;;4967615;28;20477;-71
2023/05/28 01:36:25;;;;;;;11.43;6.28;;;13.90;97.50;;;;;;4967624;28;20030;-71
2023/05/28 01:38:58;;;;;;;12.10;5.50;;;13.80;97.60;;;;;;4971850;28;20518;-71
2023/05/28 01:41:26;;;;;;;11.93;6.70;;;13.80;97.70;;;;;;4967424;28;20070;-72
2023/05/28 01:43:55;;;;;;;10.50;6.50;;;13.80;97.80;;;;;;4965952;28;20541;-72
2023/05/28 01:46:22;;;;;;;11.77;6.40;;;13.70;97.90;;;;;;4965394;28;20035;-71
2023/05/28 01:48:48;;;;;;;13.95;6.45;;;13.70;98.10;;;;;;4968547;28;20034;-70
2023/05/28 01:51:23;;;;;;;13.73;7.03;;;13.70;98.30;;;;;;4968420;28;20034;-71
2023/05/28 01:53:50;;;;;;;11.40;5.97;;;13.70;98.50;;;;;;4965565;28;20034;-73
2023/05/28 01:56:19;;;;;;;13.98;6.72;;;13.60;98.60;;;;;;4967673;28;20069;-73
2023/05/28 01:58:45;;;;;;;13.43;6.88;;;13.60;98.70;;;;;;4966643;28;20604;-73
2023/05/28 02:01:30;;;;;;;14.93;7.82;;;13.60;98.90;;;;;;4969224;28;20027;-73
2023/05/28 02:03:57;;;;;;;16.25;6.25;;;13.60;99.00;;;;;;4996770;28;20026;-73
2023/05/28 02:06:24;;;;;;;14.80;6.70;;;13.60;99.20;;;;;;4949813;28;20106;-73
2023/05/28 02:08:56;;;;;;;16.83;6.10;;;13.50;98.90;;;;;;4962094;28;20126;-73
2023/05/28 02:11:25;;;;;;;13.25;6.50;;;13.40;99.10;;;;;;4962265;28;20034;-73
2023/05/28 02:13:54;;;;;;;12.68;6.30;;;13.40;99.30;;;;;;4980188;28;20030;-73
2023/05/28 02:16:23;;;;;;;12.85;6.78;;;13.40;99.40;;;;;;4965571;28;20022;-73
2023/05/28 02:18:52;;;;;;;10.80;6.10;;;13.30;99.60;;;;;;4966358;28;20042;-73
2023/05/28 02:21:18;;;;;;;15.10;7.00;;;13.30;99.80;;;;;;4968553;28;20034;-73
2023/05/28 02:23:48;;;;;;;16.17;6.57;;;13.20;99.90;;;;;;4970097;28;20037;-73
2023/05/28 02:26:15;;;;;;;17.20;6.63;;;13.20;99.90;;;;;;4967955;28;20041;-73
2023/05/28 02:28:47;;;;;;;14.63;6.35;;;13.10;99.90;;;;;;4967864;28;20027;-73
2023/05/28 02:31:22;;;;;;;14.02;6.57;;;13.00;99.90;;;;;;4970538;28;20086;-73
2023/05/28 02:33:47;;;;;;;14.75;6.25;;;12.90;99.90;;;;;;4968030;28;20027;-73
2023/05/28 02:36:20;;;;;;;11.88;6.40;;;12.90;99.90;;;;;;4968472;28;20038;-73
2023/05/28 02:38:46;;;;;;;12.00;6.40;;;13.00;99.90;;;;;;4969503;28;20040;-73
2023/05/28 02:41:17;;;;;;;14.57;6.53;;;13.00;99.90;;;;;;4966871;28;20026;-73
2023/05/28 02:43:44;;;;;;;12.90;5.90;;;13.00;99.90;;;;;;4970138;28;20146;-73
2023/05/28 02:46:10;;;;;;;12.77;6.07;;;13.00;99.90;;;;;;4968718;28;20038;-73
2023/05/28 02:48:36;;;;;;;15.23;6.68;;;13.00;99.90;;;;;;4992847;28;20038;-73
2023/05/28 02:51:02;;;;;;;13.02;5.97;;;12.90;99.90;;;;;;4965204;28;20389;-73
2023/05/28 02:53:31;;;;;;;11.32;6.50;;;12.90;99.90;;;;;;4969564;28;20022;-73
2023/05/28 02:55:57;;;;;;;15.20;5.95;;;12.90;99.90;;;;;;4965673;28;20514;-73
2023/05/28 02:58:30;;;;;;;13.05;6.07;;;12.90;99.90;;;;;;4966852;28;20023;-73
2023/05/28 03:00:56;;;;;;;14.63;6.68;;;12.90;99.90;;;;;;4967563;28;20027;-74
2023/05/28 03:03:22;;;;;;;12.73;5.90;;;12.90;99.90;;;;;;4967023;28;20066;-74
2023/05/28 03:05:49;;;;;;;12.57;6.18;;;12.90;99.90;;;;;;4965735;28;20086;-72
2023/05/28 03:08:23;;;;;;;13.13;5.57;;;12.80;99.90;;;;;;4967138;28;20041;-73
2023/05/28 03:10:49;;;;;;;13.13;6.00;;;12.80;99.90;;;;;;4963881;28;20039;-73
2023/05/28 03:13:15;;;;;;;10.23;5.78;;;12.80;99.90;;;;;;4961501;28;20402;-72
2023/05/28 03:15:40;;;;;;;12.73;6.05;;;12.70;99.90;;;;;;4967792;28;20101;-73
2023/05/28 03:18:06;;;;;;;10.70;5.43;;;12.60;99.90;;;;;;4964589;28;20031;-73
2023/05/28 03:20:35;;;;;;;13.38;5.63;;;12.60;99.90;;;;;;4966141;28;20050;-72
2023/05/28 03:23:00;;;;;;;10.38;5.03;;;12.60;99.90;;;;;;4969329;28;20051;-72
2023/05/28 03:25:32;;;;;;;9.30;4.57;;;12.60;99.90;;;;;;4966339;28;20026;-72
2023/05/28 03:28:01;;;;;;;10.07;4.78;;;12.60;99.90;;;;;;4961172;28;20473;-73
2023/05/28 03:30:26;;;;;;;13.00;4.70;;;12.50;99.90;;;;;;4965906;28;20035;-72
2023/05/28 03:32:55;;;;;;;12.02;4.75;;;12.50;99.90;;;;;;4962291;28;20078;-73
2023/05/28 03:35:21;;;;;;;10.55;4.97;;;12.50;99.90;;;;;;4968976;28;20381;-73
2023/05/28 03:37:52;;;;;;;8.98;4.78;;;12.50;99.90;;;;;;4965379;28;20025;-72
2023/05/28 03:40:18;;;;;;;10.43;4.75;;;12.40;99.90;;;;;;4965307;28;20033;-72
2023/05/28 03:42:43;;;;;;;10.00;4.60;;;12.40;99.90;;;;;;4959604;28;20035;-72
2023/05/28 03:45:18;;;;;;;12.68;4.78;;;12.40;99.90;;;;;;4967311;28;20031;-72
2023/05/28 03:47:53;;;;;;;13.02;5.03;;;12.30;99.90;;;;;;4967400;28;20485;-72
2023/05/28 03:50:19;;;;;;;8.15;4.75;;;12.30;99.90;;;;;;4965487;28;20121;-73
2023/05/28 03:52:51;;;;;;;11.60;5.55;;;12.30;99.90;;;;;;4966784;28;20018;-72
2023/05/28 03:55:22;;;;;;;10.82;5.30;;;12.30;99.90;;;;;;4968235;28;20481;-73
2023/05/28 03:57:51;;;;;;;9.63;4.75;;;12.30;99.90;;;;;;4964922;28;20051;-72
2023/05/28 04:00:23;;;;;;;9.18;5.00;;;12.30;99.90;;;;;;4968048;28;20057;-73
2023/05/28 04:02:49;;;;;;;10.07;4.88;;;12.30;99.90;;;;;;4968217;28;20062;-73
2023/05/28 04:05:14;;;;;;;12.60;5.10;;;12.30;99.90;;;;;;4966824;28;20043;-72
2023/05/28 04:07:43;;;;;;;12.27;5.78;;;12.30;99.90;;;;;;4968703;28;20041;-73
2023/05/28 04:10:08;;;;;;;9.48;5.10;;;12.40;99.90;;;;;;4965774;28;20042;-72
2023/05/28 04:12:34;;;;;;;10.10;4.35;;;12.30;99.90;;;;;;4966152;28;20023;-72
2023/05/28 04:15:00;;;;;;;12.25;4.97;;;12.30;99.90;;;;;;4970433;28;20091;-72
2023/05/28 04:17:35;;;;;;;9.30;5.07;;;12.30;99.90;;;;;;4967246;28;20026;-72
2023/05/28 04:20:01;;;;;;;11.40;4.43;;;12.30;99.90;;;;;;4968368;28;20061;-72
2023/05/28 04:22:26;;;;;;;9.82;4.70;;;12.40;99.90;;;;;;4962092;28;20067;-72
2023/05/28 04:24:55;;;;;;;11.38;4.15;;;12.50;99.90;;;;;;4961149;28;20047;-73
2023/05/28 04:27:21;;;;;;;10.82;4.32;;;12.50;99.90;;;;;;4994941;28;20031;-73
2023/05/28 04:29:46;;;;;;;9.80;4.15;;;12.60;99.80;;;;;;4964466;28;20018;-72
2023/05/28 04:32:12;;;;;;;11.55;4.18;;;12.60;99.70;;;;;;4993018;28;20023;-72
2023/05/28 04:34:44;;;;;;;8.95;4.10;;;12.70;99.90;;;;;;4963997;28;20102;-73
2023/05/28 04:37:10;;;;;;;8.88;4.47;;;12.70;99.50;;;;;;4998517;28;20038;-72
2023/05/28 04:39:39;;;;;;;8.75;4.70;;;12.80;99.50;;;;;;4967126;28;20544;-73
2023/05/28 04:42:09;;;;;;;11.20;5.03;;;12.80;99.60;;;;;;4966245;28;20027;-72
2023/05/28 04:44:43;;;;;;;9.88;5.55;;;12.90;99.90;;;;;;4967526;28;20295;-71
2023/05/28 04:47:09;;;;;;;12.45;4.90;;;13.00;99.90;;;;;;4970409;28;20089;-72
2023/05/28 04:49:40;;;;;;;12.82;5.13;;;13.00;99.90;;;;;;4965858;28;20039;-72
2023/05/28 04:52:06;;;;;;;11.00;5.55;;;13.10;99.90;;;;;;4968512;28;20378;-72
2023/05/28 04:54:37;;;;;;;10.98;5.25;;;13.10;99.90;;;;;;4959628;28;20382;-71
2023/05/28 04:57:04;;;;;;;12.77;5.45;;;13.20;99.90;;;;;;4963370;28;20029;-71
2023/05/28 04:59:34;;;;;;;14.85;6.15;;;13.20;99.90;;;;;;4965257;28;20023;-72
2023/05/28 05:02:00;;;;;;;11.02;5.70;;;13.30;99.90;;;;;;4967741;28;20046;-72
2023/05/28 05:04:25;;;;;;;10.55;5.68;;;13.40;99.90;;;;;;4966708;28;20030;-71
2023/05/28 05:06:51;;;;;;;13.48;6.50;;;13.50;99.90;;;;;;4967966;28;20035;-71
2023/05/28 05:09:17;;;;;;;12.85;5.97;;;13.50;99.90;;;;;;4967246;28;20398;-72
2023/05/28 05:11:42;;;;;;;11.18;5.32;;;13.60;99.90;;;;;;4966072;28;20216;-70
2023/05/28 05:14:14;;;;;;;13.30;6.25;;;13.70;99.90;;;;;;4962939;28;20109;-69
2023/05/28 05:16:40;;;;;;;11.40;6.10;;;13.80;99.80;;;;;;4950876;28;20129;-70
2023/05/28 05:19:09;;;;;;;12.52;5.82;;;13.80;99.70;;;;;;4974662;28;20039;-70
2023/05/28 05:21:40;;;;;;;10.57;5.55;;;14.00;99.70;;;;;;4970545;28;20029;-70
2023/05/28 05:24:09;;;;;;;9.50;6.03;;;14.10;99.40;;;;;;4973466;28;20027;-70
2023/05/28 05:26:35;;;;;;;11.38;5.72;;;14.20;99.20;;;;;;4970173;28;20092;-70
2023/05/28 05:29:00;;;;;;;10.35;6.00;;;14.30;99.10;;;;;;4973280;28;20478;-70
2023/05/28 05:31:26;;;;;;;12.63;6.60;;;14.30;99.00;;;;;;4967802;28;20043;-70
2023/05/28 05:33:51;;;;;;;11.27;6.07;;;14.40;99.00;;;;;;4969271;28;20411;-72
2023/05/28 05:36:20;;;;;;;13.50;6.05;;;14.40;99.00;;;;;;4971646;28;20401;-71
2023/05/28 05:38:46;;;;;;;12.77;6.20;;;14.60;99.00;;;;;;4972110;28;20025;-71
2023/05/28 05:41:12;;;;;;;14.18;5.70;;;14.60;98.70;;;;;;4998525;28;20122;-71
2023/05/28 05:43:37;;;;;;;9.32;5.93;;;14.70;98.60;;;;;;4971586;28;20034;-72
2023/05/28 05:46:03;;;;;;;13.05;6.32;;;14.80;98.50;;;;;;4968591;28;20075;-71
2023/05/28 05:48:29;;;;;;;20.30;6.25;;;14.90;98.50;;;;;;4971272;28;20093;-71
2023/05/28 05:50:55;;;;;;;14.88;6.95;;;15.00;98.40;;;;;;4968751;28;20066;-71
2023/05/28 05:53:21;;;;;;;13.15;6.55;;;15.00;98.20;;;;;;4971420;28;20138;-71
2023/05/28 05:55:51;;;;;;;14.60;7.15;;;15.10;98.10;;;;;;4962082;28;20654;-70
2023/05/28 05:58:16;;;;;;;11.50;6.70;;;15.10;98.00;;;;;;4964365;28;20030;-70
2023/05/28 06:00:42;;;;;;;12.90;6.97;;;15.20;97.90;;;;;;4961229;28;20034;-70
2023/05/28 06:03:14;;;;;;;12.75;6.55;;;15.30;97.80;;;;;;4965171;28;20097;-71
2023/05/28 06:05:40;;;;;;;12.88;6.97;;;15.30;97.60;;;;;;4969197;28;20042;-71
2023/05/28 06:08:06;;;;;;;11.82;6.50;;;15.40;97.60;;;;;;4964477;28;20042;-69
2023/05/28 06:10:34;;;;;;;13.25;6.30;;;15.40;97.30;;;;;;4960547;28;20386;-67
2023/05/28 06:13:06;;;;;;;11.02;6.47;;;15.40;97.40;;;;;;4961743;28;20137;-74
2023/05/28 06:15:37;;;;;;;12.13;5.72;;;15.50;97.20;;;;;;4966760;28;20023;-72
2023/05/28 06:18:03;;;;;;;9.98;5.93;;;15.50;97.20;;;;;;4964883;28;20027;-72
2023/05/28 06:20:35;;;;;;;13.85;6.60;;;15.60;96.80;;;;;;4965551;28;20038;-70
2023/05/28 06:23:01;;;;;;;17.55;6.95;;;15.70;96.50;;;;;;4964197;28;20500;-72
2023/05/28 06:25:35;;;;;;;11.40;6.45;;;15.70;96.30;;;;;;4963904;28;20042;-70
2023/05/28 06:28:01;;;;;;;11.63;6.13;;;15.70;96.40;;;;;;4964173;28;20417;-72
2023/05/28 06:30:27;;;;;;;14.35;6.43;;;15.70;96.00;;;;;;4964312;28;20490;-71
2023/05/28 06:32:53;;;;;;;10.93;6.03;;;15.70;96.10;;;;;;4965527;28;20081;-71
2023/05/28 06:35:21;;;;;;;13.40;5.85;;;15.80;96.20;;;;;;4965108;28;20481;-70
2023/05/28 06:37:50;;;;;;;15.57;5.88;;;15.70;96.20;;;;;;4963904;28;20114;-71
2023/05/28 06:40:16;;;;;;;13.23;6.20;;;15.80;96.10;;;;;;4966865;28;20066;-71
2023/05/28 06:42:42;;;;;;;16.45;6.65;;;15.80;96.10;;;;;;4960574;28;20533;-70
2023/05/28 06:45:08;;;;;;;8.60;5.28;;;15.90;96.30;;;;;;4966687;28;20023;-71
2023/05/28 06:47:33;;;;;;;10.35;5.70;;;15.90;96.00;;;;;;4972239;28;20026;-70
2023/05/28 06:50:09;;;;;;;10.93;5.90;;;15.90;96.00;;;;;;4960690;28;20027;-70
2023/05/28 06:52:34;;;;;;;12.20;5.68;;;16.00;96.20;;;;;;4964710;28;20019;-70
2023/05/28 06:55:05;;;;;;;14.73;6.15;;;16.10;96.20;;;;;;4966844;28;20022;-71
2023/05/28 06:57:32;;;;;;;12.52;6.40;;;16.10;96.10;;;;;;4964388;28;20026;-70
2023/05/28 07:00:16;;;;;;;12.07;5.78;;;16.20;96.20;;;;;;4969534;28;20034;-70
2023/05/28 07:02:43;;;;;;;16.05;6.30;;;16.30;96.20;;;;;;4972649;28;20092;-72
2023/05/28 07:05:09;;;;;;;14.98;6.32;;;16.40;96.20;;;;;;4968215;28;20047;-71
2023/05/28 07:07:36;;;;;;;15.68;5.78;;;16.40;96.30;;;;;;4963595;28;20049;-71
2023/05/28 07:10:02;;;;;;;10.82;5.80;;;16.50;96.30;;;;;;4991307;28;20123;-71
2023/05/28 07:12:29;;;;;;;9.98;5.35;;;16.60;96.40;;;;;;4965460;28;20029;-72
2023/05/28 07:15:00;;;;;;;10.80;5.97;;;16.70;96.60;;;;;;4962087;28;20102;-70
2023/05/28 07:17:32;;;;;;;9.18;5.40;;;16.70;96.90;;;;;;4964332;28;20402;-70
2023/05/28 07:19:58;;;;;;;10.55;6.05;;;16.80;96.80;;;;;;4959523;28;20043;-71
2023/05/28 07:22:25;;;;;;;12.90;5.57;;;16.90;96.30;;;;;;4962320;28;20101;-72
2023/05/28 07:24:59;;;;;;;8.98;5.22;;;16.90;95.90;;;;;;4965978;28;20078;-70
2023/05/28 07:27:25;;;;;;;10.05;5.50;;;16.90;95.40;;;;;;4967112;28;20116;-70
2023/05/28 07:29:54;;;;;;;12.00;6.03;;;16.90;95.70;;;;;;4962286;28;20074;-71
2023/05/28 07:32:20;;;;;;;12.10;5.63;;;17.00;95.90;;;;;;4957074;28;20489;-70
2023/05/28 07:34:45;;;;;;;15.10;5.22;;;17.10;95.90;;;;;;4966446;28;20470;-71
2023/05/28 07:37:26;;;;;;;12.18;5.07;;;17.10;95.60;;;;;;4962602;28;20035;-71
2023/05/28 07:39:52;;;;;;;12.90;5.57;;;17.20;95.00;;;;;;4957056;28;20517;-70
2023/05/28 07:42:17;;;;;;;14.57;6.05;;;17.20;94.50;;;;;;4963370;28;20109;-70
2023/05/28 07:44:43;;;;;;;10.00;4.75;;;17.20;94.60;;;;;;4961995;28;20158;-70
2023/05/28 07:47:09;;;;;;;10.32;5.28;;;17.30;94.10;;;;;;4968505;28;20031;-70
2023/05/28 07:49:35;;;;;;;12.25;4.60;;;17.30;93.30;;;;;;4962664;28;20023;-71
2023/05/28 07:52:04;;;;;;;9.68;4.47;;;17.30;92.70;;;;;;4964589;28;20038;-73
2023/05/28 07:54:33;;;;;;;11.52;4.95;;;17.30;92.10;;;;;;4962477;28;20036;-73
2023/05/28 07:57:05;;;;;;;9.48;3.80;;;17.30;92.10;;;;;;4964504;28;20090;-70
2023/05/28 07:59:31;;;;;;;13.40;5.00;;;17.40;92.00;;;;;;4970446;28;20092;-75
2023/05/28 08:01:57;;;;;;;11.95;4.22;;;17.50;91.60;;;;;;4974451;28;20393;-75
2023/05/28 08:04:23;;;;;;;15.18;4.38;;;17.60;91.40;;;;;;4974703;28;20394;-74
2023/05/28 08:06:48;;;;;;;9.90;4.90;;;17.60;91.50;;;;;;4975903;28;20034;-75
2023/05/28 08:09:23;;;;;;;10.00;4.93;;;17.70;91.70;;;;;;4967591;28;20030;-71
2023/05/28 08:11:49;;;;;;;10.82;5.30;;;17.80;91.70;;;;;;4967467;28;20030;-73
2023/05/28 08:14:15;;;;;;;12.13;5.28;;;17.90;92.00;;;;;;4969914;28;20019;-72
2023/05/28 08:16:47;;;;;;;8.40;5.07;;;18.00;92.40;;;;;;4967568;28;20023;-72
2023/05/28 08:19:13;;;;;;;11.18;5.05;;;18.10;92.50;;;;;;4969075;28;20030;-72
2023/05/28 08:21:39;;;;;;;10.57;5.38;;;18.10;93.60;;;;;;4965651;28;20019;-72
2023/05/28 08:24:06;;;;;;;12.48;5.68;;;18.30;94.00;;;;;;4967242;28;21289;-72
2023/05/28 08:26:31;;;;;;;11.07;4.95;;;18.30;94.30;;;;;;5002109;28;20042;-72
2023/05/28 08:28:57;;;;;;;11.57;4.72;;;18.50;94.30;;;;;;4971499;28;20026;-73
2023/05/28 08:31:23;;;;;;;10.18;5.10;;;18.60;93.90;;;;;;4967116;28;20033;-73
2023/05/28 08:33:52;;;;;;;13.35;4.68;;;18.70;93.50;;;;;;4966186;28;20019;-72
2023/05/28 08:36:18;;;;;;;9.90;4.32;;;18.70;93.30;;;;;;4969363;28;20098;-74
2023/05/28 08:38:46;;;;;;;9.55;4.80;;;18.80;93.10;;;;;;4971801;28;20022;-72
2023/05/28 08:41:12;;;;;;;11.75;4.53;;;18.80;92.00;;;;;;4968741;28;20026;-73
2023/05/28 08:43:38;;;;;;;11.32;4.70;;;18.90;91.40;;;;;;4970274;28;20034;-71
2023/05/28 08:46:11;;;;;;;9.35;4.43;;;18.90;91.60;;;;;;4974361;28;20027;-71
2023/05/28 08:48:40;;;;;;;8.52;4.10;;;18.90;91.60;;;;;;4967839;28;20046;-71
2023/05/28 08:51:07;;;;;;;12.23;4.93;;;19.00;91.30;;;;;;4968986;28;21141;-71
2023/05/28 08:53:39;;;;;;;9.32;4.50;;;19.00;91.30;;;;;;4971715;28;20026;-73
2023/05/28 08:56:06;;;;;;;9.95;4.60;;;19.10;91.50;;;;;;4967234;28;20093;-70
2023/05/28 08:58:36;;;;;;;11.00;4.90;;;19.20;91.30;;;;;;4960099;28;20023;-71
2023/05/28 09:01:06;;;;;;;9.82;4.47;;;19.30;91.30;;;;;;4960079;28;20169;-71
2023/05/28 09:03:33;;;;;;;8.15;4.47;;;19.30;91.40;;;;;;4978459;28;20128;-72
2023/05/28 09:05:59;;;;;;;7.78;4.32;;;19.40;91.40;;;;;;4956359;29;20027;-71
2023/05/28 09:08:25;;;;;;;11.50;4.55;;;19.60;91.10;;;;;;4956073;29;20397;-71
2023/05/28 09:11:03;;;;;;;13.48;4.60;;;19.60;90.90;;;;;;4957790;29;20027;-71
2023/05/28 09:13:29;;;;;;;9.32;4.82;;;19.70;90.20;;;;;;4987982;28;20027;-70
2023/05/28 09:15:56;;;;;;;9.88;4.68;;;19.90;90.10;;;;;;4961276;28;20521;-70
2023/05/28 09:18:23;;;;;;;7.50;3.83;;;19.90;89.30;;;;;;4976395;28;20027;-72
2023/05/28 09:20:49;;;;;;;10.35;4.10;;;20.00;89.10;;;;;;4975134;28;20482;-70
2023/05/28 09:23:18;;;;;;;8.15;4.03;;;20.00;88.90;;;;;;4969577;28;20431;-70
2023/05/28 09:25:47;;;;;;;13.30;4.57;;;20.10;89.20;;;;;;4973141;28;20042;-72
2023/05/28 09:28:13;;;;;;;6.93;4.22;;;20.10;88.30;;;;;;4975247;28;20023;-71
2023/05/28 09:30:39;;;;;;;11.82;4.53;;;20.20;87.90;;;;;;4971566;28;20034;-73
2023/05/28 09:33:07;;;;;;;14.07;4.47;;;20.30;87.90;;;;;;4975010;28;20075;-72
2023/05/28 09:35:33;;;;;;;9.63;4.60;;;20.40;87.60;;;;;;4973637;28;20182;-72
2023/05/28 09:38:08;;;;;;;10.75;4.95;;;20.50;87.30;;;;;;4973363;28;20023;-72
2023/05/28 09:40:43;;;;;;;11.07;4.35;;;20.50;86.70;;;;;;4974780;28;20030;-71
2023/05/28 09:43:16;;;;;;;7.20;4.15;;;20.60;86.70;;;;;;4973852;28;20027;-72
2023/05/28 09:45:41;;;;;;;9.10;4.43;;;20.60;85.80;;;;;;4976380;28;20023;-72
2023/05/28 09:48:07;;;;;;;10.05;4.63;;;20.70;85.90;;;;;;4974234;28;20435;-72
2023/05/28 09:50:32;;;;;;;17.55;6.30;;;20.70;85.30;;;;;;4984699;28;20037;-72
2023/05/28 09:53:00;;;;;;;9.85;4.80;;;20.80;85.00;;;;;;4974815;28;20027;-74
2023/05/28 09:55:34;;;;;;;10.43;4.22;;;20.80;84.00;;;;;;4974444;28;20030;-73
2023/05/28 09:58:08;;;;;;;7.80;3.85;;;20.90;83.50;;;;;;4975143;28;20154;-74
2023/05/28 10:00:44;;;;;;;9.60;4.28;;;20.90;83.10;;;;;;4970475;28;20023;-74
2023/05/28 10:03:23;;;;;;;10.48;4.28;;;21.00;83.10;;;;;;4973858;28;20035;-74
2023/05/28 10:06:03;;;;;;;10.82;4.90;;;21.00;83.00;;;;;;4974496;28;20035;-74
2023/05/28 10:08:37;;;;;;;10.65;4.45;;;21.00;83.70;;;;;;4974599;28;20473;-74
2023/05/28 10:11:05;;;;;;;16.05;4.82;;;21.10;84.00;;;;;;4974251;28;20042;-73
2023/05/28 10:13:37;;;;;;;11.77;4.68;;;21.20;83.90;;;;;;4974074;28;20027;-73
2023/05/28 10:16:04;;;;;;;11.52;4.50;;;21.30;83.60;;;;;;4974980;28;20021;-73
2023/05/28 10:18:30;;;;;;;8.02;3.85;;;21.30;82.60;;;;;;4964734;28;20030;-71
2023/05/28 10:21:13;;;;;;;12.70;5.03;;;21.30;82.90;;;;;;4967333;28;20485;-73
2023/05/28 10:23:40;;;;;;;14.15;4.57;;;21.30;82.80;;;;;;4965931;28;20034;-74
2023/05/28 10:26:07;;;;;;;13.93;5.00;;;21.40;82.80;;;;;;4969512;28;20039;-74
2023/05/28 10:28:35;;;;;;;8.15;4.13;;;21.40;81.10;;;;;;4973302;28;20037;-74
2023/05/28 10:31:06;;;;;;;9.90;4.15;;;21.40;80.70;;;;;;4970643;28;20035;-74
2023/05/28 10:33:37;;;;;;;12.13;4.47;;;21.40;80.60;;;;;;4983908;28;20505;-74
2023/05/28 10:36:13;;;;;;;9.65;3.72;;;21.50;80.60;;;;;;4991283;28;20037;-73
2023/05/28 10:38:54;;;;;;;10.68;4.32;;;21.60;80.40;;;;;;4980786;28;20026;-74
2023/05/28 10:41:23;;;;;;;11.18;4.63;;;21.60;79.20;;;;;;4972464;28;20041;-73
2023/05/28 10:43:49;;;;;;;10.32;3.97;;;21.70;79.40;;;;;;4971559;28;20521;-74
2023/05/28 10:46:24;;;;;;;10.23;4.50;;;21.80;78.70;;;;;;4972784;28;20023;-74
2023/05/28 10:49:10;;;;;;;10.88;4.53;;;21.80;78.00;;;;;;4970901;28;20101;-74
2023/05/28 10:52:04;;;;;;;9.25;3.97;;;21.80;77.50;;;;;;4972302;28;20026;-74
2023/05/28 10:54:29;;;;;;;11.68;4.40;;;21.80;77.10;;;;;;4972005;28;20026;-75
2023/05/28 10:57:16;;;;;;;10.23;4.07;;;21.90;76.90;;;;;;4973133;28;20109;-75
2023/05/28 10:59:57;;;;;;;10.18;3.80;;;21.90;76.40;;;;;;4973874;28;20023;-75
2023/05/28 11:02:25;;;;;;;11.32;4.30;;;21.90;76.40;;;;;;4969160;28;20031;-75
2023/05/28 11:04:55;;;;;;;11.23;4.10;;;21.90;76.50;;;;;;4971107;28;20031;-75
2023/05/28 11:07:41;;;;;;;8.88;3.30;;;22.00;74.90;;;;;;4971837;28;20066;-74
2023/05/28 11:10:31;;;;;;;7.32;3.67;;;22.10;74.20;;;;;;4970801;28;20031;-76
2023/05/28 11:12:57;;;;;;;12.63;5.03;;;22.20;74.00;;;;;;4975205;28;20035;-77
2023/05/28 11:15:22;;;;;;;8.80;3.50;;;22.20;73.70;;;;;;4971202;28;20077;-76
2023/05/28 11:17:51;;;;;;;9.40;4.07;;;22.20;73.60;;;;;;4972067;28;20033;-76
2023/05/28 11:20:27;;;;;;;7.93;4.32;;;22.20;73.60;;;;;;4970893;28;20413;-76
2023/05/28 11:23:17;;;;;;;9.18;4.50;;;22.30;73.10;;;;;;4964008;28;20022;-76
2023/05/28 11:25:46;;;;;;;12.18;3.80;;;22.30;72.60;;;;;;4964446;28;20027;-76
2023/05/28 11:28:12;;;;;;;11.70;4.55;;;22.40;72.50;;;;;;4971165;28;20034;-76
2023/05/28 11:30:43;;;;;;;10.93;4.20;;;22.50;71.00;;;;;;4977597;28;20131;-76
2023/05/28 11:33:14;;;;;;;11.98;5.88;;;22.40;69.70;;;;;;4972068;28;20312;-76
2023/05/28 11:35:43;;;;;;;6.90;3.67;;;22.40;69.70;;;;;;4977797;28;20350;-76
2023/05/28 11:38:09;;;;;;;7.22;3.60;;;22.40;69.60;;;;;;4974586;28;20094;-76
2023/05/28 11:40:35;;;;;;;11.35;3.72;;;22.40;69.00;;;;;;4974444;28;20113;-76
2023/05/28 11:43:04;;;;;;;8.23;3.75;;;22.40;69.20;;;;;;4976532;28;20109;-76
2023/05/28 11:45:42;;;;;;;9.70;3.78;;;22.40;69.00;;;;;;4979668;28;20026;-77
2023/05/28 11:48:14;;;;;;;6.63;3.55;;;22.50;68.60;;;;;;4965178;28;20031;-76
2023/05/28 11:50:46;;;;;;;9.55;3.38;;;22.50;68.10;;;;;;4968908;28;20037;-76
2023/05/28 11:53:12;;;;;;;7.03;3.58;;;22.50;67.80;;;;;;4969362;28;20062;-75
2023/05/28 11:55:41;;;;;;;15.10;3.85;;;22.50;67.30;;;;;;4970843;28;20110;-76
2023/05/28 11:58:14;;;;;;;7.68;3.22;;;22.60;66.00;;;;;;5005009;28;20039;-76
2023/05/28 12:00:46;;;;;;;11.80;3.60;;;22.60;64.10;;;;;;4974837;28;20038;-76
2023/05/28 12:03:12;;;;;;;7.70;3.55;;;22.70;63.60;;;;;;4970505;28;20042;-75
2023/05/28 12:05:47;;;;;;;10.93;3.88;;;22.70;64.00;;;;;;4973305;28;20026;-74
2023/05/28 12:08:17;;;;;;;12.77;5.63;;;22.80;62.70;;;;;;4967919;28;20389;-74
2023/05/28 12:10:43;;;;;;;11.25;4.88;;;22.80;62.40;;;;;;4993549;28;20035;-73
2023/05/28 12:13:13;;;;;;;8.65;3.90;;;22.90;62.30;;;;;;4963183;28;20031;-74
2023/05/28 12:15:42;;;;;;;5.82;3.25;;;22.90;61.10;;;;;;4968825;28;20557;-73
2023/05/28 12:18:13;;;;;;;10.55;4.20;;;22.90;61.60;;;;;;4967186;28;20073;-73
2023/05/28 12:20:45;;;;;;;6.68;3.33;;;22.90;62.80;;;;;;4968691;28;20109;-72
2023/05/28 12:23:14;;;;;;;6.82;3.45;;;22.90;64.30;;;;;;4966188;28;20035;-72
2023/05/28 12:25:47;;;;;;;9.50;4.07;;;23.00;60.70;;;;;;4966014;28;20035;-72
2023/05/28 12:28:15;;;;;;;7.32;3.30;;;23.00;60.70;;;;;;4973437;28;20027;-72
2023/05/28 12:30:42;;;;;;;8.45;3.25;;;23.00;60.30;;;;;;4969789;28;20080;-75
2023/05/28 12:33:09;;;;;;;8.75;3.42;;;23.00;60.50;;;;;;4971975;28;20096;-75
2023/05/28 12:35:35;;;;;;;10.82;3.40;;;23.00;60.40;;;;;;4975185;28;20480;-74
2023/05/28 12:38:01;;;;;;;8.48;3.17;;;23.00;59.90;;;;;;4980838;28;20112;-75
2023/05/28 12:40:27;;;;;;;5.30;3.03;;;23.00;59.40;;;;;;4977268;28;20031;-76
2023/05/28 12:42:56;;;;;;;6.65;3.33;;;22.90;59.50;;;;;;4978151;28;20038;-75
2023/05/28 12:45:26;;;;;;;8.00;3.15;;;23.00;61.30;;;;;;4975458;28;20030;-76
2023/05/28 12:47:52;;;;;;;7.15;3.83;;;23.00;61.50;;;;;;4975296;28;20504;-76